Time;durP1;ratioP1;P1;durP2;ratioP2;P2;SDS_P1;SDS_P2;PMS_P1;PMS_P2;Temp;Humidity;BMP_temperature;BMP_pressure;BME280_temperature;BME280_humidity;BME280_pressure;Samples;Min_cycle;Max_cycle;Signal;HPM_P1;HPM_P2
2023/11/11 00:00:56;;;;;;;8.93;2.42;;;5.80;99.90;;;;;;4954742;28;20122;-67
2023/11/11 00:03:21;;;;;;;8.63;2.80;;;5.80;99.90;;;;;;4961242;28;20272;-66
2023/11/11 00:05:47;;;;;;;9.40;2.83;;;5.70;99.90;;;;;;4960669;28;20031;-66
2023/11/11 00:08:13;;;;;;;11.55;2.88;;;5.60;99.90;;;;;;4964592;28;20038;-64
2023/11/11 00:10:38;;;;;;;7.47;2.50;;;5.50;99.90;;;;;;4981989;28;20130;-64
2023/11/11 00:13:04;;;;;;;8.20;2.22;;;5.50;99.90;;;;;;4975482;28;20042;-64
2023/11/11 00:15:32;;;;;;;8.52;2.15;;;5.50;99.90;;;;;;4958359;28;20042;-64
2023/11/11 00:17:58;;;;;;;7.35;2.08;;;5.40;99.90;;;;;;4982244;28;20113;-64
2023/11/11 00:20:24;;;;;;;4.88;1.70;;;5.40;99.90;;;;;;4980497;28;20027;-64
2023/11/11 00:22:49;;;;;;;7.18;1.73;;;5.30;99.90;;;;;;4980604;28;20652;-64
2023/11/11 00:25:18;;;;;;;7.32;1.85;;;5.30;99.90;;;;;;4981495;28;20077;-64
2023/11/11 00:27:44;;;;;;;5.22;1.48;;;5.20;99.90;;;;;;4980925;28;20026;-64
2023/11/11 00:30:12;;;;;;;3.88;1.20;;;5.10;99.90;;;;;;4978677;28;20296;-64
2023/11/11 00:32:38;;;;;;;5.07;1.40;;;5.10;99.90;;;;;;4980904;28;20524;-64
2023/11/11 00:35:07;;;;;;;4.82;1.55;;;5.20;99.90;;;;;;4982277;28;20118;-64
2023/11/11 00:37:34;;;;;;;8.38;1.40;;;5.20;99.90;;;;;;4978213;28;20030;-64
2023/11/11 00:40:00;;;;;;;3.25;1.30;;;5.30;99.90;;;;;;4982077;28;20034;-64
2023/11/11 00:42:25;;;;;;;3.55;1.20;;;5.30;99.90;;;;;;4979180;28;20627;-64
2023/11/11 00:44:51;;;;;;;6.18;1.30;;;5.30;99.90;;;;;;4979933;28;20423;-65
2023/11/11 00:47:17;;;;;;;3.72;1.20;;;5.30;99.90;;;;;;4980372;28;20604;-64
2023/11/11 00:49:44;;;;;;;4.65;1.30;;;5.30;99.90;;;;;;4979161;28;20379;-64
2023/11/11 00:52:10;;;;;;;6.63;1.48;;;5.20;99.90;;;;;;4982167;28;20076;-64
2023/11/11 00:54:38;;;;;;;4.70;1.48;;;5.20;99.90;;;;;;4978804;28;20023;-64
2023/11/11 00:57:04;;;;;;;4.57;1.52;;;5.20;99.90;;;;;;4978346;28;20117;-65
2023/11/11 00:59:30;;;;;;;4.43;1.33;;;5.20;99.90;;;;;;4981891;28;20054;-65
2023/11/11 01:02:00;;;;;;;5.75;1.83;;;5.20;99.90;;;;;;4977361;28;20367;-65
2023/11/11 01:04:26;;;;;;;4.32;1.50;;;5.20;99.90;;;;;;4975600;28;20146;-65
2023/11/11 01:06:52;;;;;;;4.65;1.40;;;5.30;99.90;;;;;;4980842;28;20145;-65
2023/11/11 01:09:19;;;;;;;3.97;1.33;;;5.20;99.90;;;;;;4979441;28;20043;-65
2023/11/11 01:11:45;;;;;;;4.28;1.20;;;5.30;99.90;;;;;;4979126;28;20066;-65
2023/11/11 01:14:11;;;;;;;5.10;1.45;;;5.40;99.90;;;;;;4980442;28;20022;-65
2023/11/11 01:16:36;;;;;;;5.03;1.50;;;5.30;99.90;;;;;;4973962;28;20031;-65
2023/11/11 01:19:03;;;;;;;5.53;1.73;;;5.30;99.90;;;;;;4981070;28;20037;-65
2023/11/11 01:21:29;;;;;;;5.25;1.58;;;5.40;99.90;;;;;;4979342;28;20034;-65
2023/11/11 01:23:56;;;;;;;6.10;1.60;;;5.40;99.90;;;;;;4979779;28;20389;-64
2023/11/11 01:26:23;;;;;;;6.13;1.90;;;5.40;99.90;;;;;;4941454;29;20034;-64
2023/11/11 01:28:50;;;;;;;5.72;1.70;;;5.40;99.90;;;;;;4965821;28;20037;-64
2023/11/11 01:31:15;;;;;;;4.60;1.50;;;5.40;99.90;;;;;;4976952;28;20038;-64
2023/11/11 01:33:41;;;;;;;3.85;1.27;;;5.30;99.90;;;;;;4981615;28;20073;-64
2023/11/11 01:36:07;;;;;;;3.85;1.23;;;5.30;99.90;;;;;;4982147;28;20668;-64
2023/11/11 01:38:34;;;;;;;5.68;1.58;;;5.30;99.90;;;;;;4978204;28;20681;-64
2023/11/11 01:41:03;;;;;;;3.22;1.20;;;5.30;99.90;;;;;;4980151;28;20110;-64
2023/11/11 01:43:29;;;;;;;4.43;1.30;;;5.20;99.90;;;;;;4945782;28;20431;-64
2023/11/11 01:45:55;;;;;;;7.47;1.50;;;5.30;99.90;;;;;;4979982;28;20037;-64
2023/11/11 01:48:21;;;;;;;4.93;1.30;;;5.30;99.90;;;;;;4979645;28;20023;-65
2023/11/11 01:50:47;;;;;;;4.00;1.30;;;5.30;99.90;;;;;;4978663;28;20041;-65
2023/11/11 01:53:18;;;;;;;5.05;1.40;;;5.30;99.90;;;;;;4981180;28;20386;-65
2023/11/11 01:55:44;;;;;;;3.35;1.27;;;5.30;99.90;;;;;;4977924;28;20455;-65
2023/11/11 01:58:10;;;;;;;5.45;1.83;;;5.40;99.90;;;;;;4977544;28;20038;-65
2023/11/11 02:00:38;;;;;;;5.43;1.83;;;5.40;99.90;;;;;;4978435;28;20039;-65
2023/11/11 02:03:05;;;;;;;5.13;1.70;;;5.40;99.90;;;;;;4979805;28;20525;-65
2023/11/11 02:05:32;;;;;;;7.80;2.67;;;5.40;99.90;;;;;;4978078;28;20026;-65
2023/11/11 02:08:00;;;;;;;9.68;3.47;;;5.40;99.90;;;;;;4980141;28;20053;-64
2023/11/11 02:10:26;;;;;;;11.55;4.18;;;5.30;99.90;;;;;;4979495;28;20043;-64
2023/11/11 02:12:53;;;;;;;11.68;4.68;;;5.40;99.90;;;;;;4978906;28;20049;-64
2023/11/11 02:15:19;;;;;;;14.63;5.43;;;5.40;99.90;;;;;;4977162;28;20034;-64
2023/11/11 02:17:45;;;;;;;16.73;6.78;;;5.40;99.90;;;;;;4980505;28;20390;-64
2023/11/11 02:20:11;;;;;;;22.27;7.70;;;5.50;99.90;;;;;;4978991;28;20019;-64
2023/11/11 02:22:39;;;;;;;19.27;7.85;;;5.60;99.90;;;;;;4978714;28;20037;-64
2023/11/11 02:25:06;;;;;;;19.40;7.03;;;5.60;99.90;;;;;;4980558;28;20496;-64
2023/11/11 02:27:32;;;;;;;19.95;8.73;;;5.60;99.90;;;;;;4979130;28;20058;-64
2023/11/11 02:29:58;;;;;;;24.02;10.07;;;5.60;99.90;;;;;;4980369;28;20671;-64
2023/11/11 02:32:24;;;;;;;30.00;9.27;;;5.60;99.90;;;;;;4981565;28;20069;-64
2023/11/11 02:34:50;;;;;;;32.85;12.43;;;5.70;99.90;;;;;;4983910;28;20034;-64
2023/11/11 02:37:16;;;;;;;34.50;12.93;;;5.80;99.90;;;;;;4982036;28;20037;-64
2023/11/11 02:39:42;;;;;;;37.83;14.00;;;5.70;99.90;;;;;;4981171;28;20023;-64
2023/11/11 02:42:07;;;;;;;36.45;12.13;;;5.70;99.90;;;;;;4976416;28;20436;-64
2023/11/11 02:44:33;;;;;;;37.55;13.88;;;5.80;99.90;;;;;;4982809;28;20031;-64
2023/11/11 02:46:59;;;;;;;36.75;13.55;;;5.80;99.90;;;;;;4982433;28;20106;-64
2023/11/11 02:49:25;;;;;;;53.47;15.15;;;5.90;99.90;;;;;;4981693;28;20038;-64
2023/11/11 02:51:51;;;;;;;48.60;16.10;;;5.90;99.90;;;;;;4983852;28;20505;-64
2023/11/11 02:54:16;;;;;;;45.42;15.48;;;5.90;99.90;;;;;;4980947;28;20019;-64
2023/11/11 02:56:42;;;;;;;37.00;13.90;;;5.90;99.90;;;;;;4983293;28;20053;-64
2023/11/11 02:59:08;;;;;;;53.80;16.88;;;6.00;99.90;;;;;;4952643;28;20026;-64
2023/11/11 03:01:35;;;;;;;55.10;17.27;;;6.00;99.90;;;;;;4980377;28;20038;-64
2023/11/11 03:04:01;;;;;;;53.83;19.35;;;6.00;99.90;;;;;;4948795;28;20062;-64
2023/11/11 03:06:27;;;;;;;56.75;19.15;;;6.10;99.90;;;;;;4976286;28;20510;-64
2023/11/11 03:08:53;;;;;;;58.90;19.38;;;6.00;99.90;;;;;;4960220;28;20083;-64
2023/11/11 03:11:19;;;;;;;61.83;19.67;;;6.00;99.90;;;;;;4983278;28;20474;-64
2023/11/11 03:13:44;;;;;;;43.90;14.57;;;6.00;99.90;;;;;;4981506;28;20082;-64
2023/11/11 03:16:10;;;;;;;46.53;16.75;;;6.10;99.90;;;;;;4981131;28;20496;-64
2023/11/11 03:18:39;;;;;;;66.32;20.15;;;6.00;99.90;;;;;;4981106;28;20089;-64
2023/11/11 03:21:04;;;;;;;63.85;22.25;;;6.10;99.90;;;;;;4976516;28;20460;-64
2023/11/11 03:23:30;;;;;;;39.80;14.90;;;6.00;99.90;;;;;;4983009;28;20054;-64
2023/11/11 03:25:57;;;;;;;71.28;22.38;;;6.10;99.90;;;;;;4981328;28;20025;-64
2023/11/11 03:28:23;;;;;;;66.97;23.75;;;6.10;99.90;;;;;;4977701;28;20023;-64
2023/11/11 03:30:48;;;;;;;66.43;24.73;;;6.00;99.90;;;;;;4983592;28;20121;-64
2023/11/11 03:33:15;;;;;;;60.70;19.65;;;6.00;99.90;;;;;;4983312;28;20033;-64
2023/11/11 03:35:41;;;;;;;72.05;24.45;;;6.00;99.90;;;;;;4984871;28;20453;-64
2023/11/11 03:38:09;;;;;;;72.90;24.67;;;5.90;99.90;;;;;;4983121;28;20103;-64
2023/11/11 03:40:35;;;;;;;65.75;21.50;;;5.90;99.90;;;;;;4981434;28;20034;-64
2023/11/11 03:43:03;;;;;;;65.05;20.67;;;5.90;99.90;;;;;;4982475;28;20088;-64
2023/11/11 03:45:28;;;;;;;75.22;24.50;;;5.80;99.90;;;;;;4979667;28;20031;-64
2023/11/11 03:47:54;;;;;;;68.20;24.75;;;5.80;99.90;;;;;;4983387;28;20371;-64
2023/11/11 03:50:19;;;;;;;69.95;23.25;;;5.70;99.90;;;;;;4980595;28;20038;-64
2023/11/11 03:52:45;;;;;;;53.35;19.52;;;5.70;99.90;;;;;;4980518;28;20441;-66
2023/11/11 03:55:11;;;;;;;64.43;20.23;;;5.70;99.90;;;;;;4981653;28;20390;-64
2023/11/11 03:57:36;;;;;;;64.50;23.23;;;5.70;99.90;;;;;;4981582;28;20046;-64
2023/11/11 04:00:19;;;;;;;65.35;23.73;;;5.70;99.90;;;;;;4980330;28;20066;-66
2023/11/11 04:02:45;;;;;;;62.40;20.42;;;5.70;99.90;;;;;;4978037;28;20064;-64
2023/11/11 04:05:13;;;;;;;51.25;18.10;;;5.70;99.90;;;;;;4982741;28;20045;-64
2023/11/11 04:07:40;;;;;;;58.72;22.70;;;5.70;99.90;;;;;;4975908;28;20027;-66
2023/11/11 04:10:06;;;;;;;74.90;27.00;;;5.60;99.90;;;;;;4982037;28;20461;-64
2023/11/11 04:12:32;;;;;;;70.15;23.27;;;5.70;99.90;;;;;;4980677;28;20019;-64
2023/11/11 04:14:58;;;;;;;69.18;24.80;;;5.60;99.90;;;;;;4980429;28;20033;-64
2023/11/11 04:17:23;;;;;;;61.58;23.23;;;5.70;99.90;;;;;;4981808;28;20110;-64
2023/11/11 04:19:49;;;;;;;53.08;20.50;;;5.70;99.90;;;;;;4979418;28;20110;-66
2023/11/11 04:22:14;;;;;;;55.97;23.40;;;5.70;99.90;;;;;;4982736;28;20397;-66
2023/11/11 04:24:40;;;;;;;41.75;17.88;;;5.70;99.90;;;;;;4979722;28;20037;-66
2023/11/11 04:27:08;;;;;;;68.05;25.45;;;5.70;99.90;;;;;;4980956;28;20027;-66
2023/11/11 04:29:34;;;;;;;61.58;24.02;;;5.70;99.90;;;;;;4949980;28;20397;-66
2023/11/11 04:32:00;;;;;;;62.42;23.15;;;5.70;99.90;;;;;;4983527;28;20113;-66
2023/11/11 04:34:30;;;;;;;34.15;13.20;;;5.70;99.90;;;;;;4980382;28;20382;-66
2023/11/11 04:36:57;;;;;;;;;;;5.70;99.90;;;;;;4979743;28;20399;-66
2023/11/11 04:39:23;;;;;;;39.28;15.15;;;5.70;99.90;;;;;;4979847;28;19916;-66
2023/11/11 04:41:49;;;;;;;57.92;22.63;;;5.80;99.90;;;;;;4981831;28;20022;-66
2023/11/11 04:44:15;;;;;;;45.85;18.02;;;5.80;99.90;;;;;;4978960;28;20101;-65
2023/11/11 04:46:40;;;;;;;34.13;14.80;;;5.80;99.90;;;;;;4981454;28;20525;-66
2023/11/11 04:49:06;;;;;;;31.08;12.25;;;5.80;99.90;;;;;;4979704;28;20102;-66
2023/11/11 04:51:35;;;;;;;44.30;17.20;;;5.80;99.90;;;;;;4979833;28;20450;-66
2023/11/11 04:54:00;;;;;;;35.50;16.02;;;5.80;99.90;;;;;;4981401;28;20463;-66
2023/11/11 04:56:26;;;;;;;45.63;18.60;;;5.80;99.90;;;;;;4978427;28;20030;-66
2023/11/11 04:58:52;;;;;;;45.40;15.82;;;5.80;99.90;;;;;;4976945;28;20453;-66
2023/11/11 05:01:20;;;;;;;28.88;13.75;;;5.70;99.90;;;;;;4977878;28;20035;-66
2023/11/11 05:03:46;;;;;;;38.17;16.00;;;5.70;99.90;;;;;;4981765;28;20641;-66
2023/11/11 05:06:15;;;;;;;33.30;12.35;;;5.60;99.90;;;;;;4979700;28;20070;-66
2023/11/11 05:08:41;;;;;;;39.08;15.65;;;5.50;99.90;;;;;;4981223;28;20069;-66
2023/11/11 05:11:06;;;;;;;50.58;17.23;;;5.50;99.90;;;;;;4978851;28;20061;-64
2023/11/11 05:13:33;;;;;;;43.75;17.27;;;5.50;99.90;;;;;;4979659;28;20385;-63
2023/11/11 05:16:13;;;;;;;43.85;17.52;;;5.50;99.90;;;;;;4978812;28;20113;-66
2023/11/11 05:18:39;;;;;;;;;;;5.50;99.90;;;;;;4975468;28;20037;-66
2023/11/11 05:21:05;;;;;;;40.50;15.80;;;5.50;99.90;;;;;;4980559;28;19905;-64
2023/11/11 05:23:30;;;;;;;51.30;17.08;;;5.50;99.90;;;;;;4979519;28;20027;-66
2023/11/11 05:25:56;;;;;;;51.38;19.33;;;5.50;99.90;;;;;;4978932;28;20027;-66
2023/11/11 05:28:22;;;;;;;40.95;15.70;;;5.60;99.90;;;;;;4980097;28;20027;-64
2023/11/11 05:30:48;;;;;;;37.53;14.57;;;5.60;99.90;;;;;;4978468;28;20030;-66
2023/11/11 05:33:14;;;;;;;57.58;21.30;;;5.70;99.90;;;;;;4980286;28;20378;-66
2023/11/11 05:35:39;;;;;;;42.80;15.50;;;5.70;99.90;;;;;;4979327;28;20034;-65
2023/11/11 05:38:08;;;;;;;39.13;14.95;;;5.70;99.90;;;;;;4979624;28;20034;-65
2023/11/11 05:40:33;;;;;;;40.47;16.42;;;5.80;99.90;;;;;;4979139;28;20030;-65
2023/11/11 05:43:01;;;;;;;30.90;12.15;;;5.80;99.90;;;;;;4973944;28;20027;-65
2023/11/11 05:45:27;;;;;;;30.13;13.30;;;5.80;99.90;;;;;;4979828;28;20076;-65
2023/11/11 05:47:53;;;;;;;35.15;14.00;;;5.80;99.90;;;;;;4979208;28;20478;-65
2023/11/11 05:50:20;;;;;;;36.60;16.42;;;5.80;99.90;;;;;;4979133;28;20030;-66
2023/11/11 05:52:46;;;;;;;32.60;12.50;;;5.80;99.90;;;;;;4980081;28;20469;-65
2023/11/11 05:55:11;;;;;;;38.70;15.60;;;5.80;99.90;;;;;;4981629;28;20031;-65
2023/11/11 05:57:40;;;;;;;32.78;14.68;;;5.70;99.90;;;;;;4975876;28;20092;-65
2023/11/11 06:00:11;;;;;;;36.55;13.75;;;5.70;99.90;;;;;;4976981;28;20027;-65
2023/11/11 06:02:37;;;;;;;35.03;14.38;;;5.70;99.90;;;;;;4977618;28;20478;-65
2023/11/11 06:05:03;;;;;;;33.63;14.20;;;5.70;99.90;;;;;;4984452;28;20104;-65
2023/11/11 06:07:31;;;;;;;23.98;10.25;;;5.70;99.90;;;;;;4979695;28;20026;-65
2023/11/11 06:09:59;;;;;;;27.42;11.85;;;5.70;99.90;;;;;;4981002;28;20050;-65
2023/11/11 06:12:24;;;;;;;28.23;11.75;;;5.70;99.90;;;;;;4981842;28;20117;-65
2023/11/11 06:14:50;;;;;;;33.67;14.23;;;5.70;99.90;;;;;;4983736;28;20522;-65
2023/11/11 06:17:16;;;;;;;29.15;14.05;;;5.70;99.90;;;;;;4973292;28;20031;-65
2023/11/11 06:19:41;;;;;;;19.42;9.35;;;5.70;99.90;;;;;;4974535;28;20037;-62
2023/11/11 06:22:07;;;;;;;36.08;13.82;;;5.60;99.90;;;;;;4982330;28;20101;-63
2023/11/11 06:24:33;;;;;;;33.70;13.93;;;5.70;99.90;;;;;;4982748;28;20034;-63
2023/11/11 06:26:59;;;;;;;32.17;14.13;;;5.60;99.90;;;;;;4983115;28;20027;-63
2023/11/11 06:29:24;;;;;;;25.17;11.07;;;5.60;99.90;;;;;;4981557;28;20037;-65
2023/11/11 06:31:52;;;;;;;30.40;13.60;;;5.60;99.90;;;;;;4969185;28;20050;-63
2023/11/11 06:34:19;;;;;;;32.20;11.82;;;5.50;99.90;;;;;;4985031;28;20026;-63
2023/11/11 06:36:45;;;;;;;22.45;10.02;;;5.50;99.90;;;;;;4949808;28;20037;-63
2023/11/11 06:39:13;;;;;;;21.63;9.48;;;5.60;99.90;;;;;;4982171;28;20422;-65
2023/11/11 06:41:38;;;;;;;24.15;10.23;;;5.50;99.90;;;;;;4982887;28;20034;-65
2023/11/11 06:44:05;;;;;;;20.10;7.65;;;5.60;99.90;;;;;;4975924;28;20015;-65
2023/11/11 06:46:30;;;;;;;21.17;7.63;;;5.50;99.90;;;;;;4975878;28;20026;-65
2023/11/11 06:48:58;;;;;;;13.75;6.22;;;5.50;99.90;;;;;;4973743;28;20517;-66
2023/11/11 06:51:27;;;;;;;19.30;6.07;;;5.60;99.90;;;;;;4976310;28;20041;-66
2023/11/11 06:53:53;;;;;;;9.57;4.43;;;5.50;99.90;;;;;;4972649;28;20045;-63
2023/11/11 06:56:22;;;;;;;15.68;6.10;;;5.50;99.90;;;;;;4962063;28;20050;-66
2023/11/11 06:58:47;;;;;;;11.65;4.45;;;5.60;99.90;;;;;;4974467;28;20031;-66
2023/11/11 07:01:15;;;;;;;15.52;5.72;;;5.40;99.90;;;;;;4977041;28;20027;-66
2023/11/11 07:03:41;;;;;;;17.85;5.72;;;5.30;99.90;;;;;;4979848;28;20426;-64
2023/11/11 07:06:07;;;;;;;14.55;5.65;;;5.20;99.90;;;;;;4983447;28;20027;-64
2023/11/11 07:08:33;;;;;;;13.27;5.50;;;5.20;99.90;;;;;;4981580;28;20042;-64
2023/11/11 07:11:00;;;;;;;16.92;5.75;;;5.20;99.90;;;;;;4959850;28;20031;-64
2023/11/11 07:13:27;;;;;;;15.75;5.32;;;5.20;99.90;;;;;;4978532;28;20382;-64
2023/11/11 07:15:52;;;;;;;13.23;5.40;;;5.10;99.90;;;;;;4978223;28;20072;-63
2023/11/11 07:18:18;;;;;;;16.30;5.75;;;5.20;99.90;;;;;;4976718;28;20423;-65
2023/11/11 07:20:44;;;;;;;15.27;5.38;;;5.20;99.90;;;;;;4979093;28;20036;-64
2023/11/11 07:23:11;;;;;;;13.88;4.88;;;5.20;99.90;;;;;;4983551;28;20045;-64
2023/11/11 07:25:38;;;;;;;14.55;4.55;;;5.20;99.90;;;;;;4983115;28;20022;-64
2023/11/11 07:28:04;;;;;;;10.38;4.13;;;5.30;99.90;;;;;;4979085;28;20015;-64
2023/11/11 07:30:30;;;;;;;13.27;4.70;;;5.40;99.90;;;;;;4983873;28;20042;-65
2023/11/11 07:32:58;;;;;;;9.85;3.40;;;5.60;99.90;;;;;;4980047;28;20159;-63
2023/11/11 07:35:24;;;;;;;10.23;4.07;;;5.60;99.90;;;;;;4981357;28;20026;-65
2023/11/11 07:37:50;;;;;;;10.15;4.47;;;5.60;99.90;;;;;;4978903;28;20423;-64
2023/11/11 07:40:16;;;;;;;11.77;4.75;;;5.60;99.90;;;;;;4977017;28;20050;-64
2023/11/11 07:42:42;;;;;;;17.38;6.40;;;5.50;99.90;;;;;;4977123;28;20034;-65
2023/11/11 07:45:09;;;;;;;17.90;6.55;;;5.60;99.90;;;;;;4978134;28;20026;-64
2023/11/11 07:47:35;;;;;;;22.23;7.13;;;5.60;99.90;;;;;;4976532;28;20061;-64
2023/11/11 07:50:01;;;;;;;29.58;7.53;;;5.60;99.90;;;;;;4976510;28;20031;-64
2023/11/11 07:52:27;;;;;;;19.45;8.52;;;5.70;99.90;;;;;;4983073;28;20418;-64
2023/11/11 07:54:58;;;;;;;20.83;8.43;;;5.70;99.90;;;;;;4980009;28;20034;-64
2023/11/11 07:57:23;;;;;;;24.80;9.75;;;5.70;99.90;;;;;;4984161;28;20081;-64
2023/11/11 07:59:49;;;;;;;23.67;9.88;;;5.70;99.90;;;;;;4980432;28;20030;-64
2023/11/11 08:02:15;;;;;;;25.30;9.77;;;5.80;99.90;;;;;;4979466;28;20054;-64
2023/11/11 08:04:41;;;;;;;24.73;10.10;;;5.80;99.90;;;;;;4980233;28;20506;-64
2023/11/11 08:07:10;;;;;;;25.67;10.88;;;5.90;99.90;;;;;;4982326;28;20045;-64
2023/11/11 08:09:36;;;;;;;29.05;10.82;;;5.90;99.90;;;;;;4979474;28;20088;-65
2023/11/11 08:12:03;;;;;;;17.50;8.05;;;5.90;99.90;;;;;;4980745;28;20035;-65
2023/11/11 08:14:29;;;;;;;23.42;9.63;;;6.00;99.90;;;;;;4978852;28;20492;-64
2023/11/11 08:16:54;;;;;;;27.23;11.52;;;6.00;99.90;;;;;;4975921;28;20062;-64
2023/11/11 08:19:20;;;;;;;19.73;8.90;;;6.10;99.90;;;;;;4980081;28;20044;-64
2023/11/11 08:21:46;;;;;;;23.40;10.98;;;6.20;99.90;;;;;;4981367;28;20062;-64
2023/11/11 08:24:12;;;;;;;21.45;9.35;;;6.20;99.90;;;;;;4979593;28;20386;-64
2023/11/11 08:26:45;;;;;;;22.50;8.85;;;6.30;99.90;;;;;;4980419;28;20033;-64
2023/11/11 08:29:11;;;;;;;32.20;12.82;;;6.20;99.90;;;;;;4979994;28;20065;-66
2023/11/11 08:31:39;;;;;;;29.45;12.77;;;6.20;99.90;;;;;;4978836;28;20027;-65
2023/11/11 08:34:05;;;;;;;31.85;12.93;;;6.20;99.90;;;;;;4982643;28;20018;-65
2023/11/11 08:36:30;;;;;;;33.22;13.75;;;6.20;99.90;;;;;;4974234;28;20486;-65
2023/11/11 08:38:56;;;;;;;22.30;10.55;;;6.20;99.90;;;;;;4972566;28;20027;-65
2023/11/11 08:41:21;;;;;;;27.85;12.30;;;6.20;99.90;;;;;;4972437;28;20038;-65
2023/11/11 08:43:47;;;;;;;33.50;13.00;;;6.20;99.90;;;;;;4973946;28;20030;-65
2023/11/11 08:46:13;;;;;;;28.88;14.63;;;6.20;99.90;;;;;;4978321;28;20033;-65
2023/11/11 08:48:41;;;;;;;25.75;11.95;;;6.20;99.90;;;;;;4973510;28;20023;-65
2023/11/11 08:51:08;;;;;;;26.38;14.15;;;6.10;99.90;;;;;;4973965;28;20112;-65
2023/11/11 08:53:34;;;;;;;40.08;14.15;;;6.20;99.90;;;;;;4976780;28;20028;-65
2023/11/11 08:56:03;;;;;;;29.73;13.15;;;6.20;99.90;;;;;;4974890;28;20026;-65
2023/11/11 08:58:29;;;;;;;28.92;12.60;;;6.20;99.90;;;;;;4979622;28;20018;-65
2023/11/11 09:00:56;;;;;;;29.70;13.13;;;6.20;99.90;;;;;;4975217;28;20031;-65
2023/11/11 09:03:22;;;;;;;26.05;13.60;;;6.20;99.90;;;;;;4980119;28;20027;-65
2023/11/11 09:05:48;;;;;;;25.25;9.45;;;6.20;99.90;;;;;;4980234;28;20448;-65
2023/11/11 09:08:13;;;;;;;30.42;12.27;;;6.20;99.90;;;;;;4979143;28;20033;-65
2023/11/11 09:10:40;;;;;;;23.27;9.85;;;6.30;99.90;;;;;;4981369;28;20052;-64
2023/11/11 09:13:11;;;;;;;30.25;14.50;;;6.30;99.90;;;;;;4978830;28;20081;-64
2023/11/11 09:15:40;;;;;;;27.42;13.65;;;6.20;99.90;;;;;;4978199;28;20497;-64
2023/11/11 09:18:06;;;;;;;30.42;12.40;;;6.20;99.90;;;;;;4979098;28;20516;-64
2023/11/11 09:20:34;;;;;;;22.45;10.10;;;6.30;99.90;;;;;;4982185;28;20053;-64
2023/11/11 09:23:06;;;;;;;29.17;12.65;;;6.30;99.90;;;;;;4978484;28;20510;-66
2023/11/11 09:25:32;;;;;;;21.77;9.80;;;6.30;99.90;;;;;;4979832;28;20026;-66
2023/11/11 09:27:58;;;;;;;19.38;8.98;;;6.30;99.90;;;;;;4979119;28;20034;-66
2023/11/11 09:30:26;;;;;;;25.88;11.25;;;6.20;99.90;;;;;;4981962;28;20049;-64
2023/11/11 09:32:53;;;;;;;33.88;14.27;;;6.20;99.90;;;;;;4974870;28;20031;-64
2023/11/11 09:35:19;;;;;;;33.53;13.82;;;6.30;99.90;;;;;;4981655;28;20054;-64
2023/11/11 09:37:48;;;;;;;26.75;13.50;;;6.50;99.90;;;;;;4979390;28;20069;-64
2023/11/11 09:40:14;;;;;;;23.05;10.35;;;6.40;99.90;;;;;;4978663;28;20022;-64
2023/11/11 09:42:40;;;;;;;29.67;14.48;;;6.40;99.90;;;;;;4972319;28;20031;-64
2023/11/11 09:45:07;;;;;;;29.83;12.43;;;6.40;99.90;;;;;;4977953;28;20039;-64
2023/11/11 09:47:34;;;;;;;26.98;14.13;;;6.30;99.90;;;;;;4979831;28;20030;-64
2023/11/11 09:50:00;;;;;;;25.90;11.95;;;6.40;99.90;;;;;;4978353;28;20538;-64
2023/11/11 09:52:30;;;;;;;27.65;13.43;;;6.50;99.90;;;;;;4978326;28;20079;-64
2023/11/11 09:54:59;;;;;;;26.50;11.38;;;6.50;99.90;;;;;;4940382;28;20027;-63
2023/11/11 09:57:25;;;;;;;26.77;13.15;;;6.60;99.90;;;;;;4975576;28;20021;-63
2023/11/11 09:59:52;;;;;;;34.38;14.75;;;6.60;99.90;;;;;;4975269;28;20035;-63
2023/11/11 10:02:18;;;;;;;29.02;12.75;;;6.60;99.90;;;;;;4971640;28;20161;-63
2023/11/11 10:04:44;;;;;;;22.50;9.60;;;6.60;99.90;;;;;;4972887;28;20105;-63
2023/11/11 10:07:10;;;;;;;31.90;13.32;;;6.60;99.90;;;;;;4973423;28;20033;-63
2023/11/11 10:09:36;;;;;;;26.67;12.40;;;6.60;99.90;;;;;;4976641;28;20141;-63
2023/11/11 10:12:02;;;;;;;31.02;11.73;;;6.70;99.90;;;;;;4972746;28;20126;-63
2023/11/11 10:14:32;;;;;;;31.40;13.05;;;6.80;99.90;;;;;;4976406;28;20031;-63
2023/11/11 10:17:01;;;;;;;22.92;10.02;;;6.80;99.90;;;;;;4975904;28;20054;-63
2023/11/11 10:19:27;;;;;;;27.43;13.43;;;6.80;99.90;;;;;;4978800;28;20034;-63
2023/11/11 10:21:59;;;;;;;25.85;11.73;;;6.70;99.90;;;;;;4978887;28;20500;-64
2023/11/11 10:24:25;;;;;;;24.30;11.38;;;6.80;99.90;;;;;;4980661;28;20033;-64
2023/11/11 10:26:52;;;;;;;24.55;10.02;;;6.80;99.90;;;;;;4973337;28;20451;-64
2023/11/11 10:29:18;;;;;;;24.52;10.90;;;6.90;99.90;;;;;;4979265;28;20101;-64
2023/11/11 10:31:48;;;;;;;22.83;11.23;;;6.90;99.90;;;;;;4978714;28;20061;-64
2023/11/11 10:34:13;;;;;;;19.63;8.75;;;7.00;99.90;;;;;;4980118;28;20015;-64
2023/11/11 10:36:43;;;;;;;26.33;10.75;;;7.00;99.90;;;;;;4973235;28;20395;-64
2023/11/11 10:39:12;;;;;;;18.42;7.45;;;7.10;99.90;;;;;;4976212;28;20026;-64
2023/11/11 10:41:39;;;;;;;16.97;7.47;;;7.30;99.90;;;;;;4976591;28;20170;-64
2023/11/11 10:44:07;;;;;;;22.20;9.35;;;7.30;99.90;;;;;;4972729;28;20022;-64
2023/11/11 10:46:35;;;;;;;18.08;9.48;;;7.30;99.90;;;;;;4980835;28;20034;-64
2023/11/11 10:49:02;;;;;;;14.75;5.22;;;7.30;99.90;;;;;;4978967;28;20027;-64
2023/11/11 10:51:29;;;;;;;21.05;8.38;;;7.20;99.90;;;;;;4978931;28;20046;-64
2023/11/11 10:53:55;;;;;;;22.05;9.80;;;7.10;99.90;;;;;;4979798;28;20026;-64
2023/11/11 10:56:22;;;;;;;19.05;9.65;;;7.00;99.90;;;;;;4980370;28;20038;-64
2023/11/11 10:58:51;;;;;;;18.20;8.80;;;7.00;99.90;;;;;;4982243;28;20041;-64
2023/11/11 11:01:17;;;;;;;17.45;7.70;;;7.00;99.90;;;;;;4980701;28;20601;-64
2023/11/11 11:03:43;;;;;;;16.83;7.88;;;7.10;99.90;;;;;;4981811;28;20115;-64
2023/11/11 11:06:12;;;;;;;20.70;7.88;;;7.10;99.90;;;;;;4983380;28;20091;-64
2023/11/11 11:08:50;;;;;;;17.33;7.73;;;7.20;99.90;;;;;;4980402;28;20521;-64
2023/11/11 11:11:43;;;;;;;20.27;9.32;;;7.20;99.90;;;;;;4979693;28;20286;-64
2023/11/11 11:14:14;;;;;;;16.30;7.22;;;7.30;99.90;;;;;;4981198;28;20031;-64
2023/11/11 11:16:41;;;;;;;29.75;9.43;;;7.30;99.90;;;;;;4977255;28;20019;-64
2023/11/11 11:19:16;;;;;;;18.23;7.72;;;7.30;99.90;;;;;;4983155;28;20460;-64
2023/11/11 11:21:42;;;;;;;14.98;7.05;;;7.30;99.90;;;;;;4945079;28;20049;-64
2023/11/11 11:24:09;;;;;;;26.23;9.32;;;7.20;99.90;;;;;;4982203;28;20034;-64
2023/11/11 11:26:35;;;;;;;19.58;8.70;;;7.20;99.90;;;;;;4980978;28;20521;-63
2023/11/11 11:29:23;;;;;;;18.73;8.10;;;7.20;99.90;;;;;;4978326;28;20039;-63
2023/11/11 11:32:08;;;;;;;12.70;5.65;;;7.20;99.90;;;;;;4977677;28;20102;-63
2023/11/11 11:34:38;;;;;;;21.30;8.20;;;7.10;99.90;;;;;;4980030;28;20017;-63
2023/11/11 11:37:08;;;;;;;18.43;7.10;;;7.00;99.90;;;;;;4980222;28;20030;-63
2023/11/11 11:39:58;;;;;;;18.92;6.57;;;7.10;99.90;;;;;;4976115;28;20306;-63
2023/11/11 11:42:27;;;;;;;15.85;5.72;;;7.30;99.90;;;;;;4982481;28;20572;-63
2023/11/11 11:44:58;;;;;;;17.50;7.07;;;7.40;99.90;;;;;;4976396;28;20093;-63
2023/11/11 11:47:33;;;;;;;13.80;6.10;;;7.60;99.90;;;;;;4980148;28;20026;-63
2023/11/11 11:50:00;;;;;;;17.23;6.45;;;7.80;99.90;;;;;;4981287;28;20100;-63
2023/11/11 11:52:28;;;;;;;12.93;3.40;;;7.80;99.90;;;;;;4947724;28;20031;-63
2023/11/11 11:54:57;;;;;;;18.52;6.93;;;7.70;99.90;;;;;;4980938;28;20143;-63
2023/11/11 11:57:23;;;;;;;15.10;6.65;;;7.70;99.90;;;;;;4980862;28;20030;-63
2023/11/11 12:00:13;;;;;;;17.80;6.43;;;7.70;99.90;;;;;;4979252;28;20123;-63
2023/11/11 12:02:40;;;;;;;13.90;5.00;;;7.80;99.90;;;;;;4980325;28;20039;-63
2023/11/11 12:05:09;;;;;;;16.35;6.18;;;7.80;99.90;;;;;;4982218;28;20029;-63
2023/11/11 12:07:38;;;;;;;13.25;5.07;;;7.70;99.90;;;;;;4948992;28;20109;-63
2023/11/11 12:10:06;;;;;;;14.52;5.72;;;7.70;99.90;;;;;;4980015;28;20628;-63
2023/11/11 12:12:32;;;;;;;16.48;6.22;;;7.60;99.90;;;;;;4980415;28;20014;-63
2023/11/11 12:14:58;;;;;;;16.00;5.60;;;7.70;99.90;;;;;;4981963;28;20022;-63
2023/11/11 12:17:25;;;;;;;11.32;4.63;;;7.80;99.90;;;;;;4979300;28;20459;-63
2023/11/11 12:19:53;;;;;;;16.45;6.75;;;7.80;99.90;;;;;;4980266;28;20049;-63
2023/11/11 12:22:19;;;;;;;17.23;6.40;;;7.90;99.90;;;;;;4982353;28;20101;-63
2023/11/11 12:24:48;;;;;;;14.27;6.07;;;7.90;99.90;;;;;;4978772;28;20053;-63
2023/11/11 12:27:15;;;;;;;15.23;6.50;;;7.90;99.90;;;;;;4979863;28;20032;-63
2023/11/11 12:29:41;;;;;;;14.88;5.13;;;8.00;99.90;;;;;;4980924;28;20096;-63
2023/11/11 12:32:15;;;;;;;13.57;6.07;;;8.10;99.90;;;;;;4946761;28;20061;-63
2023/11/11 12:34:43;;;;;;;14.85;5.85;;;8.10;99.90;;;;;;4977358;28;20031;-63
2023/11/11 12:37:09;;;;;;;15.82;7.18;;;8.20;99.90;;;;;;4979704;28;20054;-63
2023/11/11 12:39:51;;;;;;;14.15;5.82;;;8.10;99.90;;;;;;4980957;28;20034;-63
2023/11/11 12:42:26;;;;;;;13.40;5.90;;;8.20;99.90;;;;;;4975014;28;20027;-63